Time;durP1;ratioP1;P1;durP2;ratioP2;P2;SDS_P1;SDS_P2;PMS_P1;PMS_P2;Temp;Humidity;BMP_temperature;BMP_pressure;BME280_temperature;BME280_humidity;BME280_pressure;Samples;Min_cycle;Max_cycle;Signal;HPM_P1;HPM_P2
2022/04/23 00:01:26;;;;;;;20.25;10.85;;;;;;;15.00;68.01;96923.53;4487920;31;20098;-75
2022/04/23 00:03:53;;;;;;;21.08;11.18;;;;;;;14.55;68.83;96925.31;4487927;31;20414;-75
2022/04/23 00:06:20;;;;;;;19.77;10.70;;;;;;;13.79;72.57;96928.44;4487321;31;20157;-75
2022/04/23 00:08:47;;;;;;;21.27;11.68;;;;;;;14.48;69.62;96924.16;4487964;31;20140;-75
2022/04/23 00:11:14;;;;;;;20.40;10.77;;;;;;;14.31;70.37;96922.78;4487337;31;20147;-75
2022/04/23 00:13:41;;;;;;;19.30;10.68;;;;;;;14.88;67.89;96926.25;4487454;32;20533;-75
2022/04/23 00:16:10;;;;;;;20.90;11.27;;;;;;;13.59;73.80;96928.09;4487641;32;20118;-75
2022/04/23 00:18:37;;;;;;;21.70;10.90;;;;;;;13.89;72.43;96922.44;4487892;31;20144;-75
2022/04/23 00:21:04;;;;;;;21.08;11.18;;;;;;;13.37;74.38;96928.00;4485492;32;20140;-75
2022/04/23 00:23:33;;;;;;;19.62;10.80;;;;;;;13.65;73.60;96928.63;4487726;31;20143;-75
2022/04/23 00:26:00;;;;;;;24.33;11.90;;;;;;;13.99;71.91;96927.78;4485949;32;20146;-75
2022/04/23 00:28:28;;;;;;;20.90;11.02;;;;;;;13.91;72.64;96932.72;4486816;32;20105;-75
2022/04/23 00:30:55;;;;;;;20.77;10.30;;;;;;;13.50;74.31;96933.94;4486783;31;20096;-75
2022/04/23 00:33:22;;;;;;;20.77;10.73;;;;;;;13.69;73.01;96924.84;4487362;31;20159;-75
2022/04/23 00:35:49;;;;;;;19.55;10.40;;;;;;;14.33;70.98;96923.50;4487456;32;20442;-75
2022/04/23 00:38:16;;;;;;;20.27;11.20;;;;;;;13.16;76.49;96932.09;4487823;32;20362;-75
2022/04/23 00:40:44;;;;;;;19.17;10.85;;;;;;;13.28;75.95;96926.91;4486126;32;20170;-75
2022/04/23 00:43:28;;;;;;;18.12;10.13;;;;;;;13.56;74.16;96930.94;4487708;31;20076;-75
2022/04/23 00:45:56;;;;;;;18.60;9.85;;;;;;;13.24;75.90;96928.06;4487495;31;20164;-75
2022/04/23 00:48:24;;;;;;;21.83;11.25;;;;;;;13.79;74.37;96934.44;4487420;32;20096;-75
2022/04/23 00:50:51;;;;;;;19.62;11.05;;;;;;;13.51;74.61;96927.03;4486952;31;20083;-75
2022/04/23 00:53:19;;;;;;;18.25;10.23;;;;;;;13.76;73.67;96919.13;4486418;32;20105;-75
2022/04/23 00:55:47;;;;;;;19.87;10.82;;;;;;;13.95;73.45;96928.13;4486983;31;20105;-75
2022/04/23 00:58:17;;;;;;;20.85;10.45;;;;;;;14.20;72.17;96914.97;4487699;31;20096;-75
2022/04/23 01:00:44;;;;;;;19.60;10.32;;;;;;;14.50;71.10;96922.25;4487252;31;20088;-75
2022/04/23 01:03:14;;;;;;;18.37;9.80;;;;;;;14.04;73.16;96922.28;4486088;32;20076;-75
2022/04/23 01:05:46;;;;;;;21.20;9.95;;;;;;;14.84;69.61;96917.88;4487512;32;20120;-75
2022/04/23 01:08:15;;;;;;;18.98;9.82;;;;;;;14.66;70.12;96922.72;4486137;32;20156;-75
2022/04/23 01:10:43;;;;;;;18.62;10.05;;;;;;;14.01;72.21;96914.69;4485998;32;20103;-75
2022/04/23 01:13:14;;;;;;;17.52;9.73;;;;;;;14.53;70.29;96918.59;4486286;32;20102;-75
2022/04/23 01:16:00;;;;;;;18.02;9.40;;;;;;;14.38;71.54;96915.38;4486866;31;20161;-75
2022/04/23 01:18:27;;;;;;;17.27;9.60;;;;;;;14.59;70.46;96929.34;4487552;31;20367;-75
2022/04/23 01:20:55;;;;;;;18.58;9.52;;;;;;;14.64;70.12;96922.00;4487092;31;20454;-75
2022/04/23 01:23:23;;;;;;;17.65;9.52;;;;;;;13.23;75.99;96929.00;4486978;31;20136;-75
2022/04/23 01:25:52;;;;;;;18.80;9.20;;;;;;;13.78;74.18;96921.59;4487100;31;20115;-75
2022/04/23 01:28:21;;;;;;;17.62;9.02;;;;;;;14.46;71.21;96924.25;4487496;31;20159;-75
2022/04/23 01:30:49;;;;;;;19.25;9.45;;;;;;;13.49;75.35;96921.94;4486654;31;20092;-75
2022/04/23 01:33:17;;;;;;;19.83;9.70;;;;;;;13.49;75.12;96921.09;4487289;31;20102;-75
2022/04/23 01:35:44;;;;;;;18.23;10.25;;;;;;;13.56;74.86;96917.97;4486480;31;20599;-75
2022/04/23 01:38:12;;;;;;;20.73;10.18;;;;;;;13.08;77.33;96916.25;4485851;32;20108;-75
2022/04/23 01:40:40;;;;;;;21.48;11.35;;;;;;;13.46;75.49;96922.16;4502728;26;20171;-75
2022/04/23 01:43:08;;;;;;;21.90;11.02;;;;;;;14.17;72.89;96923.00;4486832;32;20159;-75
2022/04/23 01:45:36;;;;;;;20.35;11.27;;;;;;;14.00;72.93;96921.66;4486890;32;20160;-75
2022/04/23 01:48:04;;;;;;;21.87;11.68;;;;;;;14.16;72.39;96916.16;4473015;32;20100;-75
2022/04/23 01:50:31;;;;;;;21.62;11.52;;;;;;;14.72;70.11;96926.62;4493961;31;20106;-75
2022/04/23 01:52:58;;;;;;;22.83;11.75;;;;;;;14.49;70.84;96928.38;4502850;31;20151;-76
2022/04/23 01:55:24;;;;;;;24.92;12.43;;;;;;;14.63;70.61;96925.56;4502686;31;20114;-76
2022/04/23 01:57:51;;;;;;;25.52;13.70;;;;;;;14.92;68.81;96930.28;4502390;31;20100;-75
2022/04/23 02:00:18;;;;;;;24.17;12.95;;;;;;;14.80;69.22;96936.44;4487961;31;20096;-75
2022/04/23 02:02:46;;;;;;;22.90;12.98;;;;;;;14.96;68.29;96929.91;4502715;31;20071;-75
2022/04/23 02:05:14;;;;;;;26.45;13.57;;;;;;;14.62;69.50;96929.09;4502216;31;20439;-75
2022/04/23 02:07:43;;;;;;;26.15;13.90;;;;;;;14.71;69.62;96932.75;4502592;31;20122;-75
2022/04/23 02:10:12;;;;;;;25.90;13.75;;;;;;;14.26;71.23;96926.69;4502392;31;20155;-75
2022/04/23 02:12:39;;;;;;;26.83;13.05;;;;;;;14.68;69.66;96926.03;4502299;31;20423;-75
2022/04/23 02:15:11;;;;;;;28.52;14.30;;;;;;;13.43;73.46;96924.16;4502335;31;20451;-76
2022/04/23 02:17:42;;;;;;;26.80;13.80;;;;;;;13.13;75.44;96885.69;4502455;31;20096;-75
2022/04/23 02:20:11;;;;;;;28.00;14.65;;;;;;;13.80;73.41;96919.72;4502234;31;20151;-75
2022/04/23 02:22:38;;;;;;;29.30;15.25;;;;;;;14.22;71.64;96917.47;4502461;31;20105;-75
2022/04/23 02:25:06;;;;;;;25.92;14.05;;;;;;;13.96;72.07;96922.00;4501995;31;20161;-75
2022/04/23 02:27:43;;;;;;;26.83;14.02;;;;;;;13.58;73.88;96929.06;4502321;31;20151;-75
2022/04/23 02:30:13;;;;;;;26.73;13.38;;;;;;;14.39;71.18;96919.63;4487951;31;20102;-75
2022/04/23 02:32:41;;;;;;;24.92;14.18;;;;;;;14.58;70.24;96935.47;4502002;31;20095;-75
2022/04/23 02:35:10;;;;;;;27.87;14.13;;;;;;;14.80;69.34;96939.84;4502139;31;20114;-75
2022/04/23 02:37:37;;;;;;;27.77;14.55;;;;;;;14.69;69.31;96942.44;4502251;31;20111;-75
2022/04/23 02:40:06;;;;;;;28.08;14.30;;;;;;;14.29;71.11;96936.81;4487201;31;20093;-75
2022/04/23 02:42:33;;;;;;;30.25;14.23;;;;;;;14.58;70.31;96940.66;4502137;31;20150;-75
2022/04/23 02:45:03;;;;;;;26.98;13.65;;;;;;;14.51;70.24;96941.25;4501997;31;20494;-75
2022/04/23 02:47:41;;;;;;;27.23;14.35;;;;;;;14.46;70.36;96944.19;4503180;31;20110;-75
2022/04/23 02:50:09;;;;;;;26.08;13.98;;;;;;;13.90;72.51;96937.06;4503655;31;20080;-75
2022/04/23 02:52:37;;;;;;;24.27;12.80;;;;;;;13.96;72.57;96938.41;4504211;31;20147;-75
2022/04/23 02:55:05;;;;;;;26.58;13.32;;;;;;;13.70;73.39;96934.28;4489510;31;20096;-75
2022/04/23 02:57:33;;;;;;;29.05;14.07;;;;;;;13.44;74.11;96934.41;4504161;31;20147;-72
2022/04/23 03:00:00;;;;;;;26.83;13.90;;;;;;;13.64;74.05;96940.75;4503879;31;20171;-72
2022/04/23 03:02:28;;;;;;;25.12;12.98;;;;;;;14.22;71.66;96936.44;4503870;31;20489;-72
2022/04/23 03:04:55;;;;;;;26.65;13.60;;;;;;;13.24;75.44;96938.41;4503999;31;20100;-73
2022/04/23 03:07:22;;;;;;;26.20;13.43;;;;;;;13.56;74.42;96938.72;4503732;31;20140;-73
2022/04/23 03:09:49;;;;;;;29.33;14.23;;;;;;;13.11;76.24;96936.78;4503901;31;20152;-72
2022/04/23 03:12:16;;;;;;;26.40;13.73;;;;;;;13.86;73.77;96937.41;4504046;31;20170;-73
2022/04/23 03:14:45;;;;;;;24.77;13.52;;;;;;;13.80;73.82;96948.22;4503598;31;20140;-73
2022/04/23 03:17:12;;;;;;;23.35;12.85;;;;;;;14.20;71.82;96948.72;4504031;31;20110;-73
2022/04/23 03:19:39;;;;;;;23.95;12.77;;;;;;;15.06;68.41;96956.00;4503767;31;20128;-73
2022/04/23 03:22:06;;;;;;;24.27;13.05;;;;;;;15.33;66.66;96958.22;4503643;31;20151;-73
2022/04/23 03:24:33;;;;;;;26.20;12.88;;;;;;;15.65;65.89;96955.69;4503808;31;20112;-73
2022/04/23 03:27:01;;;;;;;25.10;13.80;;;;;;;15.76;64.63;96958.25;4504018;31;20125;-73
2022/04/23 03:29:28;;;;;;;22.50;12.88;;;;;;;16.27;62.61;96956.66;4503528;31;20776;-73
2022/04/23 03:31:55;;;;;;;25.17;13.05;;;;;;;15.65;64.60;96955.69;4503823;31;20357;-73
2022/04/23 03:34:22;;;;;;;24.45;13.25;;;;;;;16.24;62.41;96964.75;4503822;31;20104;-73
2022/04/23 03:36:49;;;;;;;21.87;12.23;;;;;;;15.75;64.22;96968.75;4503662;31;20087;-73
2022/04/23 03:39:16;;;;;;;23.77;12.52;;;;;;;16.37;61.41;96955.78;4489694;31;20080;-73
2022/04/23 03:41:43;;;;;;;25.67;12.63;;;;;;;15.80;63.75;96975.22;4503492;31;20132;-73
2022/04/23 03:44:10;;;;;;;24.35;12.93;;;;;;;16.16;62.39;96967.97;4489135;31;20465;-73
2022/04/23 03:46:38;;;;;;;24.30;12.63;;;;;;;15.98;63.33;96972.94;4503931;31;20130;-73
2022/04/23 03:49:05;;;;;;;23.23;12.40;;;;;;;16.08;62.91;96968.63;4503779;31;20105;-73
2022/04/23 03:51:31;;;;;;;22.45;12.05;;;;;;;16.57;60.97;96963.72;4500897;26;20102;-73
2022/04/23 03:53:59;;;;;;;21.52;11.98;;;;;;;16.16;62.13;96963.62;4487689;32;20096;-73
2022/04/23 03:56:27;;;;;;;22.42;11.75;;;;;;;16.10;62.42;96961.50;4487789;32;20136;-73
2022/04/23 03:58:55;;;;;;;20.75;11.23;;;;;;;16.61;60.66;96968.56;4487618;32;20419;-73
2022/04/23 04:01:22;;;;;;;22.73;11.93;;;;;;;16.04;62.72;96982.81;4487501;32;20151;-73
2022/04/23 04:03:49;;;;;;;21.62;11.27;;;;;;;15.82;63.65;96981.13;4487544;32;20107;-73
2022/04/23 04:06:16;;;;;;;23.95;12.57;;;;;;;15.59;64.58;96985.53;4487895;31;20144;-73
2022/04/23 04:08:43;;;;;;;24.12;12.50;;;;;;;15.55;64.78;96991.13;4487939;31;20140;-73
2022/04/23 04:11:10;;;;;;;22.02;12.45;;;;;;;15.89;64.41;96997.06;4487218;32;20072;-73
2022/04/23 04:13:36;;;;;;;23.77;12.37;;;;;;;16.05;64.04;96994.03;4487797;31;20144;-73
2022/04/23 04:16:04;;;;;;;24.60;12.48;;;;;;;15.99;63.87;96998.00;4487577;31;20118;-73
2022/04/23 04:18:31;;;;;;;21.37;11.77;;;;;;;16.55;61.84;96994.25;4487627;32;20089;-73
2022/04/23 04:20:58;;;;;;;22.67;11.98;;;;;;;16.96;60.19;97001.22;4487375;31;20091;-73
2022/04/23 04:23:26;;;;;;;23.10;11.88;;;;;;;16.86;60.21;97008.19;4487894;31;20161;-73
2022/04/23 04:25:53;;;;;;;23.20;11.70;;;;;;;16.54;61.00;97008.25;4487269;31;20107;-73
2022/04/23 04:28:20;;;;;;;21.70;11.45;;;;;;;16.40;62.20;97014.59;4487834;32;20144;-73
2022/04/23 04:33:33;;;;;;;22.10;11.63;;;;;;;15.54;64.51;97012.87;4487517;32;20096;-73
2022/04/23 04:36:00;;;;;;;21.58;11.05;;;;;;;16.27;62.81;97025.19;4487524;32;20118;-73
2022/04/23 04:38:27;;;;;;;24.00;12.05;;;;;;;16.44;61.81;97021.19;4487428;31;20152;-73
2022/04/23 04:40:54;;;;;;;23.45;11.85;;;;;;;16.49;62.03;97021.66;4487509;31;20131;-73
2022/04/23 04:43:22;;;;;;;22.92;11.80;;;;;;;16.10;63.64;97038.75;4487745;31;20152;-73
2022/04/23 04:45:49;;;;;;;22.05;12.05;;;;;;;15.84;64.56;97039.06;4487098;31;20458;-73
2022/04/23 04:48:16;;;;;;;21.10;11.38;;;;;;;15.40;66.09;97036.50;4487742;31;20140;-73
2022/04/23 04:50:43;;;;;;;19.65;11.20;;;;;;;15.03;66.86;97037.59;4486913;31;20446;-73
2022/04/23 04:53:10;;;;;;;21.33;11.50;;;;;;;15.61;65.64;97040.88;4487429;31;20093;-73
2022/04/23 04:55:37;;;;;;;23.50;11.95;;;;;;;14.72;68.87;97033.91;4487514;32;20101;-73
2022/04/23 04:58:06;;;;;;;22.37;11.93;;;;;;;14.36;70.24;97032.25;4487566;32;20151;-73
2022/04/23 05:00:33;;;;;;;21.23;11.12;;;;;;;15.69;65.26;97037.69;4486817;31;20132;-72
2022/04/23 05:03:00;;;;;;;21.73;11.48;;;;;;;15.86;64.50;97034.56;4487422;31;20092;-73
2022/04/23 05:05:27;;;;;;;22.42;11.60;;;;;;;15.55;65.85;97033.53;4487394;32;20100;-73
2022/04/23 05:07:54;;;;;;;21.23;10.73;;;;;;;15.59;65.26;97040.16;4487242;32;20415;-72
2022/04/23 05:10:21;;;;;;;20.92;11.25;;;;;;;15.16;67.03;97040.06;4486155;32;20151;-73
2022/04/23 05:12:48;;;;;;;23.35;11.95;;;;;;;14.91;68.59;97051.53;4487415;32;20109;-73
2022/04/23 05:15:15;;;;;;;21.75;10.75;;;;;;;15.50;66.80;97060.84;4486963;31;20126;-73
2022/04/23 05:17:42;;;;;;;20.62;11.00;;;;;;;15.56;66.66;97062.97;4487422;32;20152;-73
2022/04/23 05:20:10;;;;;;;25.50;11.73;;;;;;;15.46;67.03;97059.44;4486840;31;20126;-73
2022/04/23 05:22:37;;;;;;;23.38;12.15;;;;;;;15.12;68.83;97053.44;4487054;32;20114;-73
2022/04/23 05:25:04;;;;;;;23.92;11.93;;;;;;;14.64;71.18;97049.22;4487169;31;20148;-73
2022/04/23 05:27:31;;;;;;;22.08;11.88;;;;;;;14.66;70.95;97042.13;4487033;31;20114;-72
2022/04/23 05:29:58;;;;;;;22.75;11.10;;;;;;;15.12;69.45;97046.47;4486556;31;20136;-73
2022/04/23 05:32:51;;;;;;;21.42;11.45;;;;;;;15.43;68.65;97059.69;4523080;31;224182;-74
2022/04/23 05:35:19;;;;;;;22.83;11.45;;;;;;;15.70;67.69;97059.31;4514671;31;20099;-74
2022/04/23 05:37:46;;;;;;;22.15;11.25;;;;;;;15.03;69.55;97054.94;4514031;31;20442;-74
2022/04/23 05:42:48;;;;;;;19.10;10.25;;;;;;;15.79;67.91;97053.38;4913100;26;20566;-74
2022/04/23 05:45:15;;;;;;;19.75;10.50;;;;;;;16.38;66.18;97059.00;4467374;32;20092;-74
2022/04/23 05:47:42;;;;;;;19.30;10.23;;;;;;;16.81;64.08;97052.03;4467783;32;20089;-74
2022/04/23 05:50:09;;;;;;;19.27;9.88;;;;;;;17.22;62.23;97051.94;4466523;32;20118;-74
2022/04/23 05:52:37;;;;;;;17.85;9.57;;;;;;;17.05;62.91;97057.78;4649648;26;20168;-74
2022/04/23 05:55:05;;;;;;;17.67;9.35;;;;;;;17.35;61.64;97062.19;4451781;32;20146;-74
2022/04/23 05:57:33;;;;;;;16.30;8.30;;;;;;;17.39;60.95;97073.16;4451890;32;20145;-74
2022/04/23 06:00:00;;;;;;;18.00;8.73;;;;;;;17.04;60.94;97071.78;4452107;32;20150;-74
2022/04/23 06:02:27;;;;;;;17.58;9.10;;;;;;;16.36;64.23;97081.69;4438242;32;20101;-74
2022/04/23 06:04:54;;;;;;;17.50;9.10;;;;;;;16.35;64.29;97089.63;4451394;32;20111;-74
2022/04/23 06:07:21;;;;;;;16.95;9.05;;;;;;;16.27;64.23;97094.63;4452187;32;20116;-74
2022/04/23 06:09:48;;;;;;;19.35;8.90;;;;;;;16.27;63.83;97098.06;4451586;32;20188;-74
2022/04/23 06:12:15;;;;;;;17.17;8.20;;;;;;;16.15;64.98;97106.84;4451795;32;20488;-74
2022/04/23 06:14:42;;;;;;;17.67;8.90;;;;;;;16.25;64.23;97105.16;4451807;32;20101;-73
2022/04/23 06:17:10;;;;;;;13.90;7.47;;;;;;;15.93;65.49;97102.53;4451764;32;20093;-74
2022/04/23 06:19:42;;;;;;;16.23;8.40;;;;;;;15.44;66.70;97089.94;4438242;32;20146;-73
2022/04/23 06:22:09;;;;;;;16.77;8.35;;;;;;;15.52;67.89;97092.75;4473343;26;20701;-74
2022/04/23 06:24:36;;;;;;;16.42;8.50;;;;;;;16.08;66.54;97095.28;4466984;32;20148;-74
2022/04/23 06:27:03;;;;;;;15.65;7.75;;;;;;;16.30;63.91;97100.44;4467328;32;20084;-74
2022/04/23 06:29:36;;;;;;;16.35;8.07;;;;;;;16.31;64.68;97106.47;4467630;32;20479;-74
2022/04/23 06:32:04;;;;;;;16.08;8.10;;;;;;;16.10;65.76;97112.44;4644493;26;20138;-74
2022/04/23 06:34:31;;;;;;;17.05;8.15;;;;;;;16.60;63.35;97120.53;4467328;32;20104;-74
2022/04/23 06:36:58;;;;;;;16.30;8.02;;;;;;;16.26;63.80;97114.63;4467491;32;20100;-73
2022/04/23 06:39:25;;;;;;;15.95;8.15;;;;;;;15.79;66.24;97121.00;4452991;32;20461;-73
2022/04/23 06:41:52;;;;;;;15.07;7.53;;;;;;;15.59;67.30;97122.53;4518971;26;20101;-74
2022/04/23 06:44:19;;;;;;;14.35;7.32;;;;;;;15.95;66.00;97133.63;4456765;32;20160;-73
2022/04/23 06:46:46;;;;;;;16.45;7.62;;;;;;;15.72;66.18;97132.81;4456614;32;20279;-73
2022/04/23 06:49:13;;;;;;;15.70;7.53;;;;;;;15.71;66.88;97138.97;4457001;32;20136;-73
2022/04/23 06:54:15;;;;;;;16.02;8.00;;;;;;;15.49;68.13;97140.59;4666863;26;20105;-73
2022/04/23 06:56:42;;;;;;;16.30;7.85;;;;;;;15.82;66.87;97131.16;4441345;32;20085;-73
2022/04/23 06:59:09;;;;;;;17.15;9.10;;;;;;;15.64;66.94;97141.25;4440973;32;20094;-73
2022/04/23 07:01:36;;;;;;;22.33;10.60;;;;;;;15.63;67.50;97139.59;4574122;26;20140;-74
2022/04/23 07:04:04;;;;;;;21.23;10.63;;;;;;;14.75;71.42;97149.69;4425857;32;20085;-73
2022/04/23 07:06:31;;;;;;;22.23;10.90;;;;;;;15.13;69.85;97138.22;4425494;32;20112;-73
2022/04/23 07:08:58;;;;;;;21.90;10.57;;;;;;;14.88;71.03;97145.22;4425826;32;20528;-74
2022/04/23 07:14:00;;;;;;;27.48;13.20;;;;;;;14.76;71.45;97148.72;4494864;26;20171;-74
2022/04/23 07:16:27;;;;;;;22.98;11.70;;;;;;;14.68;71.47;97145.91;4458368;32;20468;-74
2022/04/23 07:18:54;;;;;;;21.87;10.45;;;;;;;15.04;70.61;97152.72;4472244;32;20431;-73
2022/04/23 07:24:05;;;;;;;25.15;11.43;;;;;;;14.48;72.65;97156.91;4482244;26;20147;-74
2022/04/23 07:26:34;;;;;;;26.77;12.93;;;;;;;14.96;71.08;97153.28;4458212;32;20103;-73
2022/04/23 07:29:06;;;;;;;25.88;13.02;;;;;;;14.68;71.85;97151.09;4458003;32;20077;-73
2022/04/23 07:31:34;;;;;;;29.02;13.85;;;;;;;14.80;72.16;97157.97;4529476;26;20142;-73
2022/04/23 07:39:33;;;;;;;28.52;14.18;;;;;;;15.04;71.62;97163.94;4460329;32;20081;-74
2022/04/23 07:42:01;;;;;;;30.20;14.15;;;;;;;15.04;71.68;97165.72;4759396;26;20079;-74
2022/04/23 07:44:28;;;;;;;29.37;14.48;;;;;;;15.11;71.08;97166.91;4471380;32;20159;-74
2022/04/23 07:46:55;;;;;;;29.80;14.05;;;;;;;14.81;72.22;97164.81;4471943;32;20141;-74
2022/04/23 07:49:22;;;;;;;29.45;13.93;;;;;;;14.49;73.17;97169.78;4471729;32;20085;-74
2022/04/23 07:54:24;;;;;;;26.92;13.68;;;;;;;14.92;72.82;97177.00;4781734;26;20184;-74
2022/04/23 07:56:51;;;;;;;31.90;14.90;;;;;;;15.36;70.40;97181.47;4457482;32;20416;-73
2022/04/23 07:59:20;;;;;;;27.42;13.07;;;;;;;15.08;70.74;97185.31;4472019;32;20572;-72
2022/04/23 08:01:47;;;;;;;25.45;12.57;;;;;;;14.66;72.66;97191.88;4471942;32;20117;-73
2022/04/23 08:04:14;;;;;;;24.10;12.30;;;;;;;14.36;73.25;97193.16;4471844;32;20117;-73
2022/04/23 08:06:41;;;;;;;24.85;12.20;;;;;;;14.24;74.01;97188.81;4472090;32;20103;-73
2022/04/23 08:09:08;;;;;;;25.55;12.95;;;;;;;15.19;70.75;97192.31;4457717;32;20116;-73
2022/04/23 08:11:35;;;;;;;24.65;12.18;;;;;;;14.86;71.92;97195.63;4471744;32;20502;-73
2022/04/23 08:14:09;;;;;;;23.15;12.40;;;;;;;14.73;72.42;97195.72;4471892;32;20088;-73
2022/04/23 08:16:35;;;;;;;26.50;12.82;;;;;;;14.75;72.77;97192.06;4471586;32;20136;-73
2022/04/23 08:19:03;;;;;;;24.83;11.10;;;;;;;15.05;71.25;97203.72;4471784;32;20387;-72
2022/04/23 08:21:30;;;;;;;25.25;12.80;;;;;;;15.01;70.61;97194.53;4471988;32;20153;-72
2022/04/23 08:23:57;;;;;;;24.87;12.57;;;;;;;14.36;73.17;97194.91;4471365;32;20088;-74
2022/04/23 08:26:24;;;;;;;24.63;12.57;;;;;;;15.05;71.73;97194.16;4471784;32;20788;-74
2022/04/23 08:34:12;;;;;;;26.62;12.45;;;;;;;15.37;69.50;97196.13;4704464;26;20148;-74
2022/04/23 08:36:39;;;;;;;26.30;13.43;;;;;;;15.14;70.32;97200.44;4471822;32;20371;-74
2022/04/23 08:39:07;;;;;;;27.50;13.75;;;;;;;15.67;69.41;97193.00;4471489;32;20162;-74
2022/04/23 08:41:35;;;;;;;26.02;12.95;;;;;;;15.88;68.33;97201.75;4506903;26;20088;-75
2022/04/23 08:44:07;;;;;;;25.70;12.30;;;;;;;16.39;66.65;97198.63;4454747;32;20460;-74
2022/04/23 08:46:36;;;;;;;27.40;13.23;;;;;;;15.54;69.05;97195.69;4456097;32;20431;-74
2022/04/23 08:49:09;;;;;;;22.23;11.73;;;;;;;15.19;71.54;97206.13;4456153;32;20145;-74
2022/04/23 08:54:12;;;;;;;22.87;11.95;;;;;;;17.53;62.08;97213.63;4548846;26;20164;-74
2022/04/23 08:56:42;;;;;;;21.67;12.27;;;;;;;17.52;61.64;97210.19;4455906;32;20136;-74
2022/04/23 08:59:11;;;;;;;20.37;10.73;;;;;;;18.46;58.92;97210.84;4441692;32;20157;-75
2022/04/23 09:01:45;;;;;;;18.33;9.50;;;;;;;18.17;59.08;97205.56;4455992;32;20094;-74
2022/04/23 09:04:12;;;;;;;18.73;9.55;;;;;;;18.60;56.02;97207.00;4455701;32;20113;-74
2022/04/23 09:06:46;;;;;;;17.52;9.20;;;;;;;18.56;57.73;97205.66;4455293;32;20103;-74
2022/04/23 09:09:20;;;;;;;16.15;8.30;;;;;;;19.41;55.71;97205.78;4455907;32;20099;-74
2022/04/23 09:14:27;;;;;;;18.42;9.57;;;;;;;19.62;53.99;97221.31;4452942;32;20153;-74
2022/04/23 09:25:39;;;;;;;17.80;9.90;;;;;;;18.79;55.53;97223.56;4459222;32;20152;-74
2022/04/23 09:28:17;;;;;;;15.88;8.18;;;;;;;18.73;55.55;97223.31;4457074;32;20089;-74
2022/04/23 09:30:46;;;;;;;15.93;8.23;;;;;;;17.89;57.74;97218.37;4470971;32;20435;-74
2022/04/23 09:33:13;;;;;;;15.30;8.32;;;;;;;18.64;55.80;97226.69;4634918;26;20108;-74
2022/04/23 09:36:03;;;;;;;12.90;6.85;;;;;;;17.92;56.77;97235.56;4470893;32;20092;-75
2022/04/23 09:38:31;;;;;;;15.90;8.20;;;;;;;19.05;54.71;97241.34;4471173;32;20777;-74
2022/04/23 09:41:21;;;;;;;14.87;7.25;;;;;;;19.29;52.73;97233.87;4470734;32;20128;-74
2022/04/23 09:44:04;;;;;;;14.20;7.70;;;;;;;18.85;54.28;97234.47;4657149;26;20692;-75
2022/04/23 09:46:48;;;;;;;13.38;7.15;;;;;;;19.46;53.53;97234.97;4470914;32;20114;-75
2022/04/23 09:49:31;;;;;;;14.82;7.93;;;;;;;20.19;49.53;97243.03;4470853;32;20099;-74
2022/04/23 09:54:31;;;;;;;15.10;8.30;;;;;;;19.66;50.57;97241.00;4436772;32;20176;-75
2022/04/23 09:57:00;;;;;;;14.75;7.78;;;;;;;20.73;48.79;97242.19;4439816;32;20337;-75
2022/04/23 09:59:27;;;;;;;12.82;7.03;;;;;;;20.40;50.41;97240.97;4426049;32;20085;-74
2022/04/23 10:01:55;;;;;;;14.98;8.27;;;;;;;20.82;48.71;97234.41;4425555;32;20089;-75
2022/04/23 10:04:24;;;;;;;17.08;9.00;;;;;;;21.46;47.23;97246.47;4424173;32;20165;-75
2022/04/23 10:06:51;;;;;;;15.68;8.18;;;;;;;21.11;48.82;97240.25;4424304;32;20086;-74
2022/04/23 10:09:21;;;;;;;15.90;8.75;;;;;;;20.45;50.47;97238.78;4423776;32;20181;-75
2022/04/23 10:11:58;;;;;;;15.43;8.07;;;;;;;19.14;53.83;97247.50;4410510;32;20147;-74
2022/04/23 10:14:25;;;;;;;13.70;7.90;;;;;;;19.51;51.60;97237.16;4424136;32;20174;-74
2022/04/23 10:16:53;;;;;;;13.90;6.90;;;;;;;19.49;52.49;97257.41;4423932;32;20151;-74
2022/04/23 10:19:20;;;;;;;14.77;7.03;;;;;;;19.54;52.01;97255.19;4426159;32;20094;-74
2022/04/23 10:21:56;;;;;;;14.23;7.10;;;;;;;18.57;54.88;97251.69;4426313;32;20131;-74
2022/04/23 10:24:48;;;;;;;14.80;7.57;;;;;;;19.80;52.26;97256.28;4411985;32;20161;-74
2022/04/23 10:27:17;;;;;;;15.35;8.02;;;;;;;19.94;52.75;97253.19;4426240;32;20154;-74
2022/04/23 10:29:44;;;;;;;16.73;8.98;;;;;;;19.30;52.79;97259.06;4425863;32;20082;-74
2022/04/23 10:32:13;;;;;;;15.55;8.57;;;;;;;18.91;55.05;97257.41;4424282;26;20141;-74
2022/04/23 10:34:41;;;;;;;16.52;8.65;;;;;;;18.49;55.29;97255.81;4425056;32;20157;-74
2022/04/23 10:37:14;;;;;;;14.98;7.87;;;;;;;18.01;56.18;97260.06;4425855;32;20098;-74
2022/04/23 10:39:42;;;;;;;14.32;7.82;;;;;;;18.90;53.86;97250.53;4426038;32;20127;-74
2022/04/23 10:42:15;;;;;;;15.82;8.15;;;;;;;19.21;52.20;97256.47;4425587;32;20124;-74
2022/04/23 10:44:46;;;;;;;15.48;7.97;;;;;;;19.51;52.10;97251.06;4425676;32;20112;-74
2022/04/23 10:47:30;;;;;;;14.35;7.55;;;;;;;20.03;52.65;97256.75;4426051;32;20153;-74
2022/04/23 10:50:23;;;;;;;15.65;8.27;;;;;;;20.51;49.00;97261.78;4426096;32;20101;-74
2022/04/23 10:52:53;;;;;;;14.77;7.37;;;;;;;20.54;49.05;97254.63;4425333;32;20082;-74
2022/04/23 10:55:23;;;;;;;14.95;8.00;;;;;;;19.50;51.23;97264.28;4425973;32;20110;-74
2022/04/23 10:57:55;;;;;;;27.17;10.05;;;;;;;20.37;50.05;97264.03;4425834;32;20137;-74
2022/04/23 11:00:23;;;;;;;17.12;8.23;;;;;;;20.45;49.55;97261.56;4412244;32;20176;-74
2022/04/23 11:03:07;;;;;;;14.75;7.87;;;;;;;20.47;50.18;97262.22;4425657;32;20138;-74
2022/04/23 11:14:41;;;;;;;16.55;8.40;;;;;;;20.04;51.67;97261.00;4413490;32;20141;-74
2022/04/23 11:17:14;;;;;;;15.93;8.07;;;;;;;20.22;52.41;97251.44;4425678;32;20472;-74
2022/04/23 11:19:41;;;;;;;15.98;8.43;;;;;;;19.72;51.57;97258.78;4425551;32;20169;-74
2022/04/23 11:22:10;;;;;;;15.90;8.45;;;;;;;20.69;49.62;97253.94;4425892;32;20099;-74
2022/04/23 11:24:37;;;;;;;15.15;8.32;;;;;;;20.99;49.41;97257.22;4425447;32;20481;-74
2022/04/23 11:27:04;;;;;;;16.87;9.10;;;;;;;20.64;49.77;97253.59;4425532;32;20108;-74
2022/04/23 11:29:31;;;;;;;15.15;8.05;;;;;;;21.37;48.85;97256.06;4411958;32;20156;-74
2022/04/23 11:31:58;;;;;;;14.13;7.40;;;;;;;21.31;46.85;97244.41;4425617;32;20104;-74
2022/04/23 11:34:28;;;;;;;14.05;7.60;;;;;;;21.39;47.46;97245.44;4494451;26;20096;-75
2022/04/23 11:36:56;;;;;;;15.00;7.50;;;;;;;21.62;46.47;97249.22;4473786;32;20168;-74
2022/04/23 11:39:30;;;;;;;14.38;7.22;;;;;;;22.49;43.94;97248.22;4460602;32;20105;-74
2022/04/23 11:41:58;;;;;;;13.45;7.03;;;;;;;21.92;44.79;97250.56;4487929;32;20133;-75
2022/04/23 11:47:17;;;;;;;14.50;7.80;;;;;;;22.65;44.09;97252.69;4471816;32;20084;-75
2022/04/23 11:49:44;;;;;;;13.82;7.32;;;;;;;21.51;45.78;97263.41;4458017;32;20168;-75
2022/04/23 11:52:12;;;;;;;13.45;7.35;;;;;;;20.93;46.94;97255.16;4472015;32;20085;-75
2022/04/23 11:54:40;;;;;;;12.95;7.80;;;;;;;21.28;46.56;97262.25;4471399;32;20098;-75
2022/04/23 11:57:09;;;;;;;13.68;7.28;;;;;;;21.47;46.17;97264.69;4471988;32;20110;-74
2022/04/23 11:59:44;;;;;;;13.18;7.60;;;;;;;21.44;46.10;97259.75;4472165;32;20111;-74
2022/04/23 12:02:23;;;;;;;12.10;6.75;;;;;;;20.41;50.89;97249.66;4471785;32;20100;-74
2022/04/23 12:04:55;;;;;;;13.48;7.50;;;;;;;21.19;46.98;97255.25;4471880;32;20077;-74
2022/04/23 12:07:22;;;;;;;13.13;6.78;;;;;;;21.87;45.74;97264.13;4472051;32;20085;-74
2022/04/23 12:09:57;;;;;;;12.32;6.28;;;;;;;21.77;45.36;97267.84;4471824;32;20160;-74
2022/04/23 12:15:10;;;;;;;12.82;6.60;;;;;;;20.70;48.74;97268.72;4702467;27;20454;-74
2022/04/23 12:17:53;;;;;;;12.15;6.35;;;;;;;21.29;48.06;97274.41;4471865;32;20145;-74
2022/04/23 12:20:25;;;;;;;12.57;6.45;;;;;;;21.27;47.46;97268.47;4472059;32;20106;-74
2022/04/23 12:23:07;;;;;;;12.95;7.05;;;;;;;20.95;47.22;97277.66;4561416;26;20155;-74
2022/04/23 12:25:36;;;;;;;12.82;6.87;;;;;;;20.45;50.21;97272.03;4437433;32;20129;-74